createdAt,value
2023-05-16T00:00:49.677Z,1009.84
2023-05-16T00:01:49.732Z,1009.81
2023-05-16T00:02:49.775Z,1009.88
2023-05-16T00:03:49.737Z,1009.84
2023-05-16T00:04:49.744Z,1009.86
2023-05-16T00:05:49.634Z,1009.88
2023-05-16T00:06:49.583Z,1009.90
2023-05-16T00:07:49.608Z,1009.86
2023-05-16T00:08:49.597Z,1009.86
2023-05-16T00:09:49.559Z,1009.88
2023-05-16T00:10:49.559Z,1009.90
2023-05-16T00:11:49.556Z,1009.94
2023-05-16T00:12:49.526Z,1009.95
2023-05-16T00:13:49.580Z,1009.89
2023-05-16T00:14:49.525Z,1009.92
2023-05-16T00:15:49.526Z,1009.94
2023-05-16T00:16:49.500Z,1009.92
2023-05-16T00:17:49.560Z,1009.90
2023-05-16T00:18:49.509Z,1009.93
2023-05-16T00:19:49.453Z,1009.96
2023-05-16T00:20:49.474Z,1009.94
2023-05-16T00:21:49.451Z,1009.97
2023-05-16T00:22:49.417Z,1009.93
2023-05-16T00:23:49.453Z,1009.97
2023-05-16T00:24:49.395Z,1009.96
2023-05-16T00:25:49.420Z,1009.93
2023-05-16T00:26:49.369Z,1009.96
2023-05-16T00:27:49.368Z,1009.96
2023-05-16T00:28:49.385Z,1009.93
2023-05-16T00:29:49.405Z,1009.96
2023-05-16T00:30:49.332Z,1009.93
2023-05-16T00:31:49.408Z,1009.96
2023-05-16T00:32:49.393Z,1009.96
2023-05-16T00:33:49.308Z,1009.96
2023-05-16T00:34:49.371Z,1009.92
2023-05-16T00:35:49.303Z,1009.99
2023-05-16T00:36:49.282Z,1009.93
2023-05-16T00:37:49.254Z,1009.95
2023-05-16T00:38:49.271Z,1009.99
2023-05-16T00:39:49.243Z,1009.97
2023-05-16T00:40:49.230Z,1009.97
2023-05-16T00:41:49.217Z,1009.99
2023-05-16T00:42:49.235Z,1009.95
2023-05-16T00:43:49.259Z,1009.98
2023-05-16T00:44:49.227Z,1010.02
2023-05-16T00:45:49.196Z,1010.02
2023-05-16T00:46:49.366Z,1010.00
2023-05-16T00:47:49.212Z,1010.01
2023-05-16T00:48:49.140Z,1010.05
2023-05-16T00:49:49.138Z,1010.02
2023-05-16T00:50:49.150Z,1010.08
2023-05-16T00:51:49.155Z,1010.03
2023-05-16T00:52:49.101Z,1010.06
2023-05-16T00:53:49.089Z,1010.10
2023-05-16T00:54:49.066Z,1010.05
2023-05-16T00:55:49.102Z,1010.06
2023-05-16T00:56:49.056Z,1010.00
2023-05-16T00:57:49.054Z,1010.05
2023-05-16T00:58:49.212Z,1010.10
2023-05-16T00:59:49.080Z,1010.08
2023-05-16T01:00:49.065Z,1010.08
2023-05-16T01:01:49.076Z,1010.07
2023-05-16T01:02:49.109Z,1010.07
2023-05-16T01:03:49.247Z,1010.15
2023-05-16T01:04:48.968Z,1010.07
2023-05-16T01:05:49.013Z,1010.06
2023-05-16T01:06:49.014Z,1010.11
2023-05-16T01:07:48.964Z,1010.11
2023-05-16T01:08:48.937Z,1010.10
2023-05-16T01:09:48.921Z,1010.11
2023-05-16T01:10:48.942Z,1010.13
2023-05-16T01:11:48.888Z,1010.13
2023-05-16T01:12:48.875Z,1010.10
2023-05-16T01:13:48.900Z,1010.19
2023-05-16T01:14:48.878Z,1010.21
2023-05-16T01:15:48.877Z,1010.25
2023-05-16T01:16:48.908Z,1010.23
2023-05-16T01:17:48.867Z,1010.25
2023-05-16T01:18:48.904Z,1010.25
2023-05-16T01:19:48.824Z,1010.30
2023-05-16T01:20:48.844Z,1010.32
2023-05-16T01:21:48.791Z,1010.26
2023-05-16T01:22:48.780Z,1010.40
2023-05-16T01:23:48.762Z,1010.36
2023-05-16T01:24:48.749Z,1010.45
2023-05-16T01:25:48.785Z,1010.48
2023-05-16T01:26:48.760Z,1010.43
2023-05-16T01:27:48.710Z,1010.50
2023-05-16T01:28:48.706Z,1010.50
2023-05-16T01:29:48.695Z,1010.51
2023-05-16T01:30:48.678Z,1010.50
2023-05-16T01:31:48.769Z,1010.53
2023-05-16T01:32:48.759Z,1010.50
2023-05-16T01:33:48.659Z,1010.55
2023-05-16T01:34:48.701Z,1010.53
2023-05-16T01:35:48.634Z,1010.53
2023-05-16T01:36:48.658Z,1010.65
2023-05-16T01:37:48.631Z,1010.56
2023-05-16T01:38:48.596Z,1010.54
2023-05-16T01:39:55.627Z,1010.55
2023-05-16T01:40:48.568Z,1010.69
2023-05-16T01:41:48.656Z,1010.62
2023-05-16T01:42:48.554Z,1010.56
2023-05-16T01:43:48.586Z,1010.65
2023-05-16T01:44:48.557Z,1010.64
2023-05-16T01:45:48.536Z,1010.58
2023-05-16T01:46:48.615Z,1010.71
2023-05-16T01:47:48.618Z,1010.63
2023-05-16T01:48:48.486Z,1010.67
2023-05-16T01:49:48.483Z,1010.70
2023-05-16T01:50:48.474Z,1010.73
2023-05-16T01:51:48.508Z,1010.71
2023-05-16T01:52:48.482Z,1010.72
2023-05-16T01:53:48.442Z,1010.68
2023-05-16T01:54:48.424Z,1010.74
2023-05-16T01:55:48.415Z,1010.73
2023-05-16T01:56:48.511Z,1010.72
2023-05-16T01:57:48.405Z,1010.75
2023-05-16T01:58:48.382Z,1010.75
2023-05-16T01:59:48.383Z,1010.76
2023-05-16T02:00:48.407Z,1010.75
2023-05-16T02:01:48.380Z,1010.74
2023-05-16T02:02:48.444Z,1010.79
2023-05-16T02:03:48.396Z,1010.72
2023-05-16T02:04:48.382Z,1010.76
2023-05-16T02:05:48.312Z,1010.77
2023-05-16T02:06:48.289Z,1010.78
2023-05-16T02:07:48.292Z,1010.81
2023-05-16T02:08:48.272Z,1010.81
2023-05-16T02:09:48.338Z,1010.78
2023-05-16T02:10:48.253Z,1010.83
2023-05-16T02:11:48.248Z,1010.83
2023-05-16T02:12:48.235Z,1010.83
2023-05-16T02:13:48.230Z,1010.86
2023-05-16T02:14:48.229Z,1010.87
2023-05-16T02:15:48.239Z,1010.86
2023-05-16T02:16:48.319Z,1010.87
2023-05-16T02:17:48.280Z,1010.85
2023-05-16T02:18:48.203Z,1010.83
2023-05-16T02:19:48.438Z,1010.84
2023-05-16T02:20:48.174Z,1010.91
2023-05-16T02:21:48.191Z,1010.85
2023-05-16T02:22:48.159Z,1010.90
2023-05-16T02:23:48.112Z,1010.89
2023-05-16T02:24:48.123Z,1010.91
2023-05-16T02:25:48.126Z,1010.89
2023-05-16T02:26:48.086Z,1010.92
2023-05-16T02:27:48.071Z,1010.88
2023-05-16T02:28:48.080Z,1010.86
2023-05-16T02:29:48.076Z,1010.88
2023-05-16T02:30:48.082Z,1010.88
2023-05-16T02:31:48.030Z,1010.91
2023-05-16T02:32:48.119Z,1010.90
2023-05-16T02:33:48.130Z,1010.92
2023-05-16T02:34:48.044Z,1010.93
2023-05-16T02:35:48.003Z,1010.96
2023-05-16T02:36:47.980Z,1010.92
2023-05-16T02:37:47.991Z,1010.94
2023-05-16T02:38:47.956Z,1010.98
2023-05-16T02:39:48.054Z,1010.97
2023-05-16T02:40:47.942Z,1010.96
2023-05-16T02:41:47.941Z,1011.00
2023-05-16T02:42:47.921Z,1010.98
2023-05-16T02:43:47.901Z,1011.01
2023-05-16T02:44:47.920Z,1011.02
2023-05-16T02:45:47.948Z,1011.05
2023-05-16T02:46:47.961Z,1011.01
2023-05-16T02:47:47.895Z,1011.01
2023-05-16T02:48:47.850Z,1011.09
2023-05-16T02:49:47.829Z,1011.10
2023-05-16T02:50:47.830Z,1011.09
2023-05-16T02:51:47.839Z,1011.14
2023-05-16T02:52:47.818Z,1011.14
2023-05-16T02:53:47.800Z,1011.14
2023-05-16T02:54:59.898Z,1011.21
2023-05-16T02:55:48.773Z,1011.12
2023-05-16T02:56:47.788Z,1011.14
2023-05-16T02:57:47.771Z,1011.19
2023-05-16T02:58:47.750Z,1011.20
2023-05-16T02:59:47.730Z,1011.22
2023-05-16T03:00:47.713Z,1011.24
2023-05-16T03:01:47.840Z,1011.23
2023-05-16T03:02:47.805Z,1011.23
2023-05-16T03:03:47.835Z,1011.24
2023-05-16T03:04:47.679Z,1011.25
2023-05-16T03:05:47.684Z,1011.26
2023-05-16T03:06:47.653Z,1011.30
2023-05-16T03:07:47.648Z,1011.34
2023-05-16T03:08:47.635Z,1011.31
2023-05-16T03:09:47.632Z,1011.31
2023-05-16T03:10:47.690Z,1011.36
2023-05-16T03:11:47.662Z,1011.38
2023-05-16T03:12:47.608Z,1011.43
2023-05-16T03:13:47.602Z,1011.35
2023-05-16T03:14:47.570Z,1011.37
2023-05-16T03:15:47.577Z,1011.36
2023-05-16T03:16:47.701Z,1011.32
2023-05-16T03:17:47.587Z,1011.41
2023-05-16T03:18:47.628Z,1011.43
2023-05-16T03:19:47.517Z,1011.39
2023-05-16T03:20:47.549Z,1011.47
2023-05-16T03:21:47.546Z,1011.49
2023-05-16T03:22:47.489Z,1011.47
2023-05-16T03:23:47.484Z,1011.51
2023-05-16T03:24:47.580Z,1011.46
2023-05-16T03:25:47.503Z,1011.46
2023-05-16T03:26:47.452Z,1011.47
2023-05-16T03:27:47.429Z,1011.46
2023-05-16T03:28:47.420Z,1011.48
2023-05-16T03:29:47.406Z,1011.54
2023-05-16T03:30:47.410Z,1011.53
2023-05-16T03:31:47.520Z,1011.54
2023-05-16T03:32:47.468Z,1011.55
2023-05-16T03:33:47.377Z,1011.55
2023-05-16T03:34:47.375Z,1011.54
2023-05-16T03:35:47.359Z,1011.51
2023-05-16T03:36:47.415Z,1011.57
2023-05-16T03:37:47.328Z,1011.61
2023-05-16T03:38:47.316Z,1011.58
2023-05-16T03:39:47.304Z,1011.60
2023-05-16T03:40:47.329Z,1011.57
2023-05-16T03:41:47.298Z,1011.59
2023-05-16T03:42:47.279Z,1011.61
2023-05-16T03:43:47.316Z,1011.60
2023-05-16T03:44:47.255Z,1011.62
2023-05-16T03:45:47.360Z,1011.67
2023-05-16T03:46:47.259Z,1011.70
2023-05-16T03:47:47.240Z,1011.76
2023-05-16T03:48:47.236Z,1011.74
2023-05-16T03:49:47.270Z,1011.73
2023-05-16T03:50:47.206Z,1011.82
2023-05-16T03:51:47.174Z,1011.82
2023-05-16T03:52:47.189Z,1011.86
2023-05-16T03:53:47.199Z,1011.84
2023-05-16T03:54:47.227Z,1011.77
2023-05-16T03:55:48.745Z,1011.84
2023-05-16T03:56:47.129Z,1011.86
2023-05-16T03:57:47.113Z,1011.82
2023-05-16T03:58:47.173Z,1011.85
2023-05-16T03:59:47.140Z,1011.85
2023-05-16T04:00:47.087Z,1011.93
2023-05-16T04:01:47.134Z,1011.88
2023-05-16T04:02:47.268Z,1011.91
2023-05-16T04:03:47.047Z,1011.94
2023-05-16T04:04:47.045Z,1011.89
2023-05-16T04:05:47.062Z,1011.89
2023-05-16T04:06:47.026Z,1011.93
2023-05-16T04:07:47.029Z,1011.93
2023-05-16T04:08:47.000Z,1011.98
2023-05-16T04:09:46.987Z,1011.98
2023-05-16T04:10:46.975Z,1012.01
2023-05-16T04:11:46.964Z,1011.99
2023-05-16T04:12:46.954Z,1011.98
2023-05-16T04:13:47.095Z,1012.04
2023-05-16T04:14:46.948Z,1012.06
2023-05-16T04:15:46.924Z,1012.07
2023-05-16T04:16:47.015Z,1012.10
2023-05-16T04:17:46.960Z,1012.12
2023-05-16T04:18:46.955Z,1012.12
2023-05-16T04:19:46.885Z,1012.11
2023-05-16T04:20:46.877Z,1012.07
2023-05-16T04:21:46.853Z,1012.11
2023-05-16T04:22:46.854Z,1012.10
2023-05-16T04:23:46.876Z,1012.10
2023-05-16T04:24:46.831Z,1012.10
2023-05-16T04:25:46.814Z,1012.19
2023-05-16T04:26:46.801Z,1012.14
2023-05-16T04:27:46.795Z,1012.18
2023-05-16T04:28:47.458Z,1012.28
2023-05-16T04:29:46.802Z,1012.19
2023-05-16T04:30:46.772Z,1012.24
2023-05-16T04:31:46.803Z,1012.21
2023-05-16T04:32:46.796Z,1012.25
2023-05-16T04:33:46.728Z,1012.27
2023-05-16T04:34:46.762Z,1012.27
2023-05-16T04:35:46.712Z,1012.32
2023-05-16T04:36:46.704Z,1012.30
2023-05-16T04:37:46.693Z,1012.31
2023-05-16T04:38:46.686Z,1012.31
2023-05-16T04:39:46.739Z,1012.31
2023-05-16T04:40:46.660Z,1012.36
2023-05-16T04:41:46.670Z,1012.36
2023-05-16T04:42:46.644Z,1012.35
2023-05-16T04:43:46.672Z,1012.35
2023-05-16T04:44:46.689Z,1012.40
2023-05-16T04:45:46.607Z,1012.41
2023-05-16T04:46:46.726Z,1012.45
2023-05-16T04:47:46.634Z,1012.45
2023-05-16T04:48:46.581Z,1012.45
2023-05-16T04:49:46.568Z,1012.51
2023-05-16T04:50:46.627Z,1012.43
2023-05-16T04:51:46.547Z,1012.54
2023-05-16T04:52:46.557Z,1012.49
2023-05-16T04:53:46.517Z,1012.53
2023-05-16T04:54:46.574Z,1012.52
2023-05-16T04:55:46.510Z,1012.53
2023-05-16T04:56:46.489Z,1012.52
2023-05-16T04:57:46.516Z,1012.55
2023-05-16T04:58:46.473Z,1012.51
2023-05-16T04:59:48.035Z,1012.60
2023-05-16T05:00:46.455Z,1012.60
2023-05-16T05:01:46.523Z,1012.59
2023-05-16T05:02:46.485Z,1012.60
2023-05-16T05:03:48.322Z,1012.56
2023-05-16T05:04:48.349Z,1012.56
2023-05-16T05:05:46.394Z,1012.56
2023-05-16T05:06:46.400Z,1012.57
2023-05-16T05:07:46.413Z,1012.64
2023-05-16T05:08:46.364Z,1012.63
2023-05-16T05:09:46.378Z,1012.64
2023-05-16T05:10:46.368Z,1012.68
2023-05-16T05:11:46.331Z,1012.69
2023-05-16T05:12:46.330Z,1012.71
2023-05-16T05:13:46.344Z,1012.69
2023-05-16T05:14:46.369Z,1012.68
2023-05-16T05:15:46.284Z,1012.72
2023-05-16T05:16:46.279Z,1012.68
2023-05-16T05:17:46.363Z,1012.71
2023-05-16T05:18:46.429Z,1012.68
2023-05-16T05:19:46.336Z,1012.66
2023-05-16T05:20:46.229Z,1012.65
2023-05-16T05:21:46.212Z,1012.74
2023-05-16T05:22:46.217Z,1012.70
2023-05-16T05:23:46.197Z,1012.75
2023-05-16T05:24:49.178Z,1012.74
2023-05-16T05:25:46.177Z,1012.77
2023-05-16T05:26:46.175Z,1012.80
2023-05-16T05:27:46.157Z,1012.76
2023-05-16T05:28:53.906Z,1012.78
2023-05-16T05:29:47.138Z,1012.83
2023-05-16T05:30:46.230Z,1012.83
2023-05-16T05:31:46.227Z,1012.85
2023-05-16T05:32:46.157Z,1012.86
2023-05-16T05:33:46.085Z,1012.88
2023-05-16T05:34:46.091Z,1012.92
2023-05-16T05:35:46.105Z,1012.83
2023-05-16T05:36:46.070Z,1012.83
2023-05-16T05:37:46.095Z,1012.89
2023-05-16T05:38:46.058Z,1012.92
2023-05-16T05:39:46.029Z,1012.94
2023-05-16T05:40:46.180Z,1012.96
2023-05-16T05:41:46.006Z,1012.99
2023-05-16T05:42:47.221Z,1012.98
2023-05-16T05:43:45.982Z,1013.04
2023-05-16T05:44:45.997Z,1013.01
2023-05-16T05:45:45.983Z,1013.01
2023-05-16T05:46:45.981Z,1013.07
2023-05-16T05:47:45.982Z,1013.01
2023-05-16T05:48:45.936Z,1013.02
2023-05-16T05:49:45.928Z,1013.11
2023-05-16T05:50:45.949Z,1013.12
2023-05-16T05:51:45.907Z,1013.13
2023-05-16T05:52:45.906Z,1013.14
2023-05-16T05:53:45.870Z,1013.09
2023-05-16T05:54:45.868Z,1013.10
2023-05-16T05:55:45.871Z,1013.11
2023-05-16T05:56:48.924Z,1013.15
2023-05-16T05:57:45.828Z,1013.14
2023-05-16T05:58:45.825Z,1013.14
2023-05-16T05:59:45.804Z,1013.11
2023-05-16T06:00:45.809Z,1013.16
2023-05-16T06:01:45.826Z,1013.09
2023-05-16T06:02:46.310Z,1013.12
2023-05-16T06:03:45.769Z,1013.12
2023-05-16T06:04:45.760Z,1013.18
2023-05-16T06:05:49.332Z,1013.15
2023-05-16T06:06:45.743Z,1013.19
2023-05-16T06:07:45.729Z,1013.18
2023-05-16T06:08:45.746Z,1013.23
2023-05-16T06:09:45.718Z,1013.18
2023-05-16T06:10:45.702Z,1013.15
2023-05-16T06:11:47.914Z,1013.23
2023-05-16T06:12:47.334Z,1013.16
2023-05-16T06:13:45.659Z,1013.23
2023-05-16T06:14:45.739Z,1013.26
2023-05-16T06:15:45.649Z,1013.24
2023-05-16T06:16:45.655Z,1013.25
2023-05-16T06:17:45.665Z,1013.25
2023-05-16T06:18:45.649Z,1013.27
2023-05-16T06:19:45.593Z,1013.25
2023-05-16T06:20:47.516Z,1013.26
2023-05-16T06:21:45.576Z,1013.27
2023-05-16T06:22:45.569Z,1013.31
2023-05-16T06:23:45.555Z,1013.31
2023-05-16T06:24:45.587Z,1013.29
2023-05-16T06:25:45.536Z,1013.26
2023-05-16T06:26:47.337Z,1013.29
2023-05-16T06:27:47.507Z,1013.31
2023-05-16T06:28:45.518Z,1013.30
2023-05-16T06:29:45.491Z,1013.36
2023-05-16T06:30:45.518Z,1013.34
2023-05-16T06:31:45.521Z,1013.39
2023-05-16T06:32:45.557Z,1013.36
2023-05-16T06:33:45.451Z,1013.35
2023-05-16T06:34:45.438Z,1013.45
2023-05-16T06:35:45.429Z,1013.40
2023-05-16T06:36:45.448Z,1013.43
2023-05-16T06:37:47.044Z,1013.39
2023-05-16T06:38:47.144Z,1013.36
2023-05-16T06:39:45.400Z,1013.42
2023-05-16T06:40:45.389Z,1013.43
2023-05-16T06:41:45.375Z,1013.45
2023-05-16T06:42:45.358Z,1013.44
2023-05-16T06:43:45.349Z,1013.47
2023-05-16T06:44:52.668Z,1013.40
2023-05-16T06:45:45.330Z,1013.39
2023-05-16T06:46:45.356Z,1013.41
2023-05-16T06:47:45.317Z,1013.46
2023-05-16T06:48:45.379Z,1013.43
2023-05-16T06:49:45.322Z,1013.42
2023-05-16T06:50:45.265Z,1013.39
2023-05-16T06:51:45.268Z,1013.45
2023-05-16T06:52:45.269Z,1013.46
2023-05-16T06:53:45.237Z,1013.51
2023-05-16T06:54:46.921Z,1013.40
2023-05-16T06:55:45.252Z,1013.49
2023-05-16T06:56:45.218Z,1013.48
2023-05-16T06:57:45.203Z,1013.41
2023-05-16T06:58:45.254Z,1013.38
2023-05-16T06:59:50.214Z,1013.42
2023-05-16T07:00:45.164Z,1013.47
2023-05-16T07:01:45.257Z,1013.46
2023-05-16T07:02:45.226Z,1013.32
2023-05-16T07:03:45.197Z,1013.35
2023-05-16T07:04:46.817Z,1013.44
2023-05-16T07:05:45.118Z,1013.52
2023-05-16T07:06:45.100Z,1013.39
2023-05-16T07:07:45.090Z,1013.42
2023-05-16T07:08:45.130Z,1013.37
2023-05-16T07:09:45.069Z,1013.40
2023-05-16T07:10:45.060Z,1013.44
2023-05-16T07:11:45.056Z,1013.38
2023-05-16T07:12:45.040Z,1013.45
2023-05-16T07:13:46.592Z,1013.43
2023-05-16T07:14:45.031Z,1013.43
2023-05-16T07:15:45.003Z,1013.47
2023-05-16T07:16:45.037Z,1013.52
2023-05-16T07:17:45.029Z,1013.47
2023-05-16T07:18:46.671Z,1013.44
2023-05-16T07:19:44.962Z,1013.46
2023-05-16T07:20:46.646Z,1013.46
2023-05-16T07:21:44.949Z,1013.45
2023-05-16T07:22:44.935Z,1013.47
2023-05-16T07:23:44.966Z,1013.43
2023-05-16T07:24:44.918Z,1013.38
2023-05-16T07:25:44.919Z,1013.39
2023-05-16T07:26:44.921Z,1013.44
2023-05-16T07:27:44.993Z,1013.38
2023-05-16T07:28:44.895Z,1013.42
2023-05-16T07:29:44.867Z,1013.48
2023-05-16T07:30:44.847Z,1013.41
2023-05-16T07:31:44.882Z,1013.44
2023-05-16T07:32:45.851Z,1013.46
2023-05-16T07:33:44.825Z,1013.49
2023-05-16T07:34:44.797Z,1013.45
2023-05-16T07:35:44.787Z,1013.46
2023-05-16T07:36:44.772Z,1013.51
2023-05-16T07:37:46.686Z,1013.50
2023-05-16T07:38:45.497Z,1013.55
2023-05-16T07:39:44.746Z,1013.58
2023-05-16T07:40:44.731Z,1013.57
2023-05-16T07:41:44.725Z,1013.66
2023-05-16T07:42:46.424Z,1013.57
2023-05-16T07:43:44.704Z,1013.59
2023-05-16T07:44:44.692Z,1013.61
2023-05-16T07:45:44.735Z,1013.61
2023-05-16T07:46:45.015Z,1013.56
2023-05-16T07:47:44.692Z,1013.54
2023-05-16T07:48:44.652Z,1013.54
2023-05-16T07:49:44.637Z,1013.57
2023-05-16T07:50:44.662Z,1013.57
2023-05-16T07:51:44.613Z,1013.59
2023-05-16T07:52:48.300Z,1013.56
2023-05-16T07:53:44.592Z,1013.59
2023-05-16T07:54:44.576Z,1013.60
2023-05-16T07:55:44.572Z,1013.55
2023-05-16T07:56:44.566Z,1013.63
2023-05-16T07:57:46.498Z,1013.65
2023-05-16T07:58:44.539Z,1013.66
2023-05-16T07:59:44.598Z,1013.58
2023-05-16T08:00:44.527Z,1013.66
2023-05-16T08:01:44.513Z,1013.69
2023-05-16T08:02:44.631Z,1013.66
2023-05-16T08:03:46.253Z,1013.64
2023-05-16T08:04:44.477Z,1013.67
2023-05-16T08:05:44.507Z,1013.65
2023-05-16T08:06:49.198Z,1013.69
2023-05-16T08:07:47.593Z,1013.70
2023-05-16T08:08:44.438Z,1013.72
2023-05-16T08:09:44.420Z,1013.76
2023-05-16T08:10:44.412Z,1013.75
2023-05-16T08:11:44.402Z,1013.72
2023-05-16T08:12:46.034Z,1013.68
2023-05-16T08:13:44.380Z,1013.78
2023-05-16T08:14:44.389Z,1013.73
2023-05-16T08:15:44.487Z,1013.72
2023-05-16T08:16:44.392Z,1013.80
2023-05-16T08:17:44.356Z,1013.78
2023-05-16T08:18:44.363Z,1013.70
2023-05-16T08:19:44.320Z,1013.69
2023-05-16T08:20:44.310Z,1013.67
2023-05-16T08:21:46.084Z,1013.70
2023-05-16T08:22:44.298Z,1013.70
2023-05-16T08:23:44.271Z,1013.72
2023-05-16T08:24:44.262Z,1013.66
2023-05-16T08:25:44.277Z,1013.68
2023-05-16T08:26:44.240Z,1013.76
2023-05-16T08:27:44.294Z,1013.77
2023-05-16T08:28:44.219Z,1013.66
2023-05-16T08:29:44.218Z,1013.72
2023-05-16T08:30:46.457Z,1013.79
2023-05-16T08:31:44.262Z,1013.76
2023-05-16T08:32:44.259Z,1013.69
2023-05-16T08:33:45.967Z,1013.67
2023-05-16T08:34:44.182Z,1013.70
2023-05-16T08:35:44.178Z,1013.74
2023-05-16T08:36:44.134Z,1013.63
2023-05-16T08:37:44.127Z,1013.63
2023-05-16T08:38:44.122Z,1013.67
2023-05-16T08:39:44.152Z,1013.69
2023-05-16T08:40:44.099Z,1013.66
2023-05-16T08:41:44.079Z,1013.71
2023-05-16T08:42:45.397Z,1013.66
2023-05-16T08:43:44.088Z,1013.70
2023-05-16T08:44:44.048Z,1013.69
2023-05-16T08:45:46.104Z,1013.71
2023-05-16T08:46:44.108Z,1013.70
2023-05-16T08:47:44.032Z,1013.68
2023-05-16T08:48:44.068Z,1013.69
2023-05-16T08:49:44.014Z,1013.63
2023-05-16T08:50:44.013Z,1013.57
2023-05-16T08:51:43.976Z,1013.65
2023-05-16T08:52:43.975Z,1013.72
2023-05-16T08:53:47.176Z,1013.70
2023-05-16T08:54:44.295Z,1013.71
2023-05-16T08:55:43.984Z,1013.74
2023-05-16T08:56:43.937Z,1013.77
2023-05-16T08:57:43.913Z,1013.70
2023-05-16T08:58:45.482Z,1013.80
2023-05-16T08:59:43.897Z,1013.74
2023-05-16T09:00:43.901Z,1013.73
2023-05-16T09:01:43.902Z,1013.74
2023-05-16T09:02:43.948Z,1013.67
2023-05-16T09:03:43.918Z,1013.64
2023-05-16T09:04:45.292Z,1013.66
2023-05-16T09:05:43.872Z,1013.64
2023-05-16T09:06:43.811Z,1013.64
2023-05-16T09:07:43.818Z,1013.71
2023-05-16T09:08:43.806Z,1013.71
2023-05-16T09:09:45.496Z,1013.79
2023-05-16T09:10:43.825Z,1013.75
2023-05-16T09:11:43.764Z,1013.70
2023-05-16T09:12:43.796Z,1013.67
2023-05-16T09:13:43.759Z,1013.70
2023-05-16T09:14:43.737Z,1013.66
2023-05-16T09:15:51.994Z,1013.66
2023-05-16T09:16:43.750Z,1013.64
2023-05-16T09:17:46.806Z,1013.64
2023-05-16T09:18:43.833Z,1013.65
2023-05-16T09:19:43.751Z,1013.67
2023-05-16T09:20:45.091Z,1013.65
2023-05-16T09:21:43.655Z,1013.65
2023-05-16T09:22:43.640Z,1013.59
2023-05-16T09:23:43.670Z,1013.65
2023-05-16T09:24:43.756Z,1013.65
2023-05-16T09:25:43.617Z,1013.64
2023-05-16T09:26:43.634Z,1013.64
2023-05-16T09:27:43.596Z,1013.65
2023-05-16T09:28:43.593Z,1013.66
2023-05-16T09:29:43.602Z,1013.69
2023-05-16T09:30:46.830Z,1013.76
2023-05-16T09:31:43.653Z,1013.69
2023-05-16T09:32:43.599Z,1013.70
2023-05-16T09:33:43.531Z,1013.69
2023-05-16T09:34:43.514Z,1013.68
2023-05-16T09:35:45.489Z,1013.76
2023-05-16T09:36:44.113Z,1013.72
2023-05-16T09:37:43.483Z,1013.69
2023-05-16T09:38:43.474Z,1013.69
2023-05-16T09:39:43.461Z,1013.66
2023-05-16T09:40:43.446Z,1013.66
2023-05-16T09:41:45.223Z,1013.66
2023-05-16T09:42:43.422Z,1013.70
2023-05-16T09:43:43.428Z,1013.70
2023-05-16T09:44:43.417Z,1013.65
2023-05-16T09:45:43.450Z,1013.66
2023-05-16T09:46:43.482Z,1013.66
2023-05-16T09:47:43.432Z,1013.64
2023-05-16T09:48:43.363Z,1013.63
2023-05-16T09:49:43.354Z,1013.67
2023-05-16T09:50:43.338Z,1013.66
2023-05-16T09:51:43.334Z,1013.67
2023-05-16T09:52:45.143Z,1013.63
2023-05-16T09:53:43.323Z,1013.65
2023-05-16T09:54:43.295Z,1013.72
2023-05-16T09:55:43.298Z,1013.68
2023-05-16T09:56:43.272Z,1013.66
2023-05-16T09:57:43.302Z,1013.61
2023-05-16T09:58:43.304Z,1013.59
2023-05-16T09:59:43.245Z,1013.62
2023-05-16T10:00:43.240Z,1013.62
2023-05-16T10:01:43.265Z,1013.60
2023-05-16T10:02:43.309Z,1013.63
2023-05-16T10:03:43.363Z,1013.63
2023-05-16T10:04:44.959Z,1013.56
2023-05-16T10:05:43.180Z,1013.58
2023-05-16T10:06:44.912Z,1013.51
2023-05-16T10:07:43.160Z,1013.49
2023-05-16T10:08:43.229Z,1013.50
2023-05-16T10:09:43.174Z,1013.51
2023-05-16T10:10:43.131Z,1013.48
2023-05-16T10:11:43.186Z,1013.47
2023-05-16T10:12:43.266Z,1013.45
2023-05-16T10:13:43.134Z,1013.43
2023-05-16T10:14:43.247Z,1013.43
2023-05-16T10:15:43.075Z,1013.44
2023-05-16T10:16:44.971Z,1013.43
2023-05-16T10:17:43.091Z,1013.47
2023-05-16T10:18:43.154Z,1013.55
2023-05-16T10:19:43.044Z,1013.55
2023-05-16T10:20:43.029Z,1013.57
2023-05-16T10:21:43.071Z,1013.54
2023-05-16T10:22:42.992Z,1013.50
2023-05-16T10:23:43.197Z,1013.56
2023-05-16T10:24:42.972Z,1013.56
2023-05-16T10:25:42.971Z,1013.56
2023-05-16T10:26:42.950Z,1013.54
2023-05-16T10:27:42.951Z,1013.60
2023-05-16T10:28:42.939Z,1013.58
2023-05-16T10:29:53.513Z,1013.60
2023-05-16T10:30:43.929Z,1013.51
2023-05-16T10:31:42.952Z,1013.49
2023-05-16T10:32:43.133Z,1013.51
2023-05-16T10:33:42.922Z,1013.53
2023-05-16T10:34:42.877Z,1013.58
2023-05-16T10:35:42.912Z,1013.53
2023-05-16T10:36:42.840Z,1013.56
2023-05-16T10:37:42.851Z,1013.48
2023-05-16T10:38:42.822Z,1013.51
2023-05-16T10:39:42.850Z,1013.52
2023-05-16T10:40:42.826Z,1013.50
2023-05-16T10:41:46.149Z,1013.46
2023-05-16T10:42:42.768Z,1013.46
2023-05-16T10:43:44.569Z,1013.45
2023-05-16T10:44:48.840Z,1013.48
2023-05-16T10:45:43.840Z,1013.48
2023-05-16T10:46:42.736Z,1013.50
2023-05-16T10:47:42.749Z,1013.48
2023-05-16T10:48:42.733Z,1013.49
2023-05-16T10:49:43.782Z,1013.41
2023-05-16T10:50:42.691Z,1013.44
2023-05-16T10:51:42.674Z,1013.42
2023-05-16T10:52:42.679Z,1013.42
2023-05-16T10:53:42.658Z,1013.39
2023-05-16T10:54:42.651Z,1013.37
2023-05-16T10:55:42.676Z,1013.44
2023-05-16T10:56:42.643Z,1013.35
2023-05-16T10:57:42.652Z,1013.31
2023-05-16T10:58:42.603Z,1013.33
2023-05-16T10:59:42.585Z,1013.34
2023-05-16T11:00:42.581Z,1013.38
2023-05-16T11:01:42.705Z,1013.42
2023-05-16T11:02:42.772Z,1013.31
2023-05-16T11:03:45.809Z,1013.36
2023-05-16T11:04:42.697Z,1013.40
2023-05-16T11:05:42.520Z,1013.32
2023-05-16T11:06:42.552Z,1013.29
2023-05-16T11:07:42.494Z,1013.36
2023-05-16T11:08:42.486Z,1013.29
2023-05-16T11:09:44.152Z,1013.37
2023-05-16T11:10:42.548Z,1013.35
2023-05-16T11:11:45.622Z,1013.40
2023-05-16T11:12:42.463Z,1013.33
2023-05-16T11:13:42.503Z,1013.37
2023-05-16T11:14:42.538Z,1013.38
2023-05-16T11:15:42.465Z,1013.30
2023-05-16T11:16:42.430Z,1013.39
2023-05-16T11:17:44.739Z,1013.42
2023-05-16T11:18:42.408Z,1013.38
2023-05-16T11:19:42.414Z,1013.38
2023-05-16T11:20:42.373Z,1013.42
2023-05-16T11:21:42.348Z,1013.38
2023-05-16T11:22:42.349Z,1013.36
2023-05-16T11:23:42.325Z,1013.38
2023-05-16T11:24:44.021Z,1013.40
2023-05-16T11:25:42.306Z,1013.39
2023-05-16T11:26:42.300Z,1013.34
2023-05-16T11:27:42.290Z,1013.34
2023-05-16T11:28:42.281Z,1013.43
2023-05-16T11:29:42.265Z,1013.43
2023-05-16T11:30:46.983Z,1013.46
2023-05-16T11:31:42.299Z,1013.43
2023-05-16T11:32:42.372Z,1013.36
2023-05-16T11:33:42.234Z,1013.39
2023-05-16T11:34:42.227Z,1013.41
2023-05-16T11:35:42.248Z,1013.44
2023-05-16T11:36:42.191Z,1013.46
2023-05-16T11:37:42.207Z,1013.48
2023-05-16T11:38:42.189Z,1013.49
2023-05-16T11:39:42.229Z,1013.45
2023-05-16T11:40:42.217Z,1013.45
2023-05-16T11:41:44.189Z,1013.40
2023-05-16T11:42:42.198Z,1013.41
2023-05-16T11:43:42.120Z,1013.38
2023-05-16T11:44:42.118Z,1013.36
2023-05-16T11:45:42.097Z,1013.41
2023-05-16T11:46:43.927Z,1013.45
2023-05-16T11:47:42.139Z,1013.41
2023-05-16T11:48:42.193Z,1013.40
2023-05-16T11:49:42.047Z,1013.27
2023-05-16T11:50:42.099Z,1013.36
2023-05-16T11:51:42.038Z,1013.40
2023-05-16T11:52:42.028Z,1013.38
2023-05-16T11:53:42.026Z,1013.38
2023-05-16T11:54:42.010Z,1013.37
2023-05-16T11:55:42.683Z,1013.29
2023-05-16T11:56:43.650Z,1013.28
2023-05-16T11:57:41.969Z,1013.32
2023-05-16T11:58:42.184Z,1013.21
2023-05-16T11:59:41.946Z,1013.29
2023-05-16T12:00:41.941Z,1013.30
2023-05-16T12:01:41.931Z,1013.28
2023-05-16T12:02:44.103Z,1013.31
2023-05-16T12:03:42.044Z,1013.39
2023-05-16T12:04:42.005Z,1013.35
2023-05-16T12:05:41.994Z,1013.40